Time;durP1;ratioP1;P1;durP2;ratioP2;P2;SDS_P1;SDS_P2;PMS_P1;PMS_P2;Temp;Humidity;BMP_temperature;BMP_pressure;BME280_temperature;BME280_humidity;BME280_pressure;Samples;Min_cycle;Max_cycle;Signal;HPM_P1;HPM_P2
2023/10/05 00:01:56;;;;;;;10.73;4.37;;;;;;;12.38;74.56;101007.31;5090500;28;20613;-62
2023/10/05 00:04:26;;;;;;;10.17;3.90;;;;;;;12.36;74.58;100992.69;5091457;28;20298;-61
2023/10/05 00:06:54;;;;;;;12.97;4.37;;;;;;;12.37;74.64;101002.13;5090651;28;20539;-62
2023/10/05 00:09:24;;;;;;;6.60;4.13;;;;;;;12.37;74.59;100999.56;5090044;28;20573;-63
2023/10/05 00:11:55;;;;;;;6.00;4.13;;;;;;;12.33;74.60;101001.28;5093757;28;20614;-61
2023/10/05 00:14:25;;;;;;;5.50;3.60;;;;;;;12.28;74.35;101005.63;5092023;28;20200;-62
2023/10/05 00:16:55;;;;;;;9.60;4.00;;;;;;;12.28;74.93;100996.16;5084887;28;20705;-62
2023/10/05 00:19:27;;;;;;;10.13;4.00;;;;;;;12.28;74.53;100995.28;5089729;28;20564;-62
2023/10/05 00:21:56;;;;;;;5.87;3.80;;;;;;;12.28;75.03;100990.13;5083373;28;20312;-63
2023/10/05 00:24:29;;;;;;;8.07;4.07;;;;;;;12.28;74.41;100990.97;5090561;28;20568;-62
2023/10/05 00:26:59;;;;;;;6.40;4.13;;;;;;;12.31;74.58;100984.94;5091579;28;20200;-61
2023/10/05 00:29:29;;;;;;;5.93;3.80;;;;;;;12.29;74.33;100979.78;5090865;28;20196;-63
2023/10/05 00:32:00;;;;;;;5.67;3.70;;;;;;;12.30;74.42;100983.25;5091603;28;20201;-61
2023/10/05 00:34:28;;;;;;;7.33;3.60;;;;;;;12.31;73.97;100975.47;5091576;28;20279;-63
2023/10/05 00:36:59;;;;;;;6.87;3.73;;;;;;;12.31;74.17;100974.63;5091445;28;20605;-63
2023/10/05 00:39:29;;;;;;;7.60;3.70;;;;;;;12.27;74.17;100967.75;5097787;28;20203;-63
2023/10/05 00:42:08;;;;;;;5.67;3.60;;;;;;;12.27;74.26;100967.75;5093235;28;20213;-65
2023/10/05 00:44:40;;;;;;;4.73;3.37;;;;;;;12.26;74.22;100966.00;5090361;28;20339;-61
2023/10/05 00:47:12;;;;;;;8.03;4.00;;;;;;;12.25;74.08;100969.47;5088063;28;20689;-63
2023/10/05 00:49:51;;;;;;;6.93;3.83;;;;;;;12.21;74.12;100967.75;5091767;28;20200;-62
2023/10/05 00:52:24;;;;;;;4.97;3.43;;;;;;;12.16;73.65;100965.19;5087708;28;20209;-63
2023/10/05 00:54:55;;;;;;;6.70;3.97;;;;;;;12.16;73.92;100972.09;5080820;28;20220;-63
2023/10/05 00:57:24;;;;;;;10.33;3.80;;;;;;;12.18;74.14;100972.91;5091017;28;20270;-64
2023/10/05 01:00:13;;;;;;;6.73;4.13;;;;;;;12.18;74.21;100963.44;5089807;28;20209;-62
2023/10/05 01:03:03;;;;;;;8.87;4.67;;;;;;;12.20;74.04;100966.03;5088837;28;20211;-63
2023/10/05 01:05:36;;;;;;;8.03;3.87;;;;;;;12.19;73.82;100960.03;5090993;28;20624;-63
2023/10/05 01:08:13;;;;;;;8.40;4.03;;;;;;;12.19;73.75;100956.59;5085736;28;20251;-63
2023/10/05 01:10:43;;;;;;;10.90;4.07;;;;;;;12.17;73.52;100956.56;5086798;28;20373;-63
2023/10/05 01:13:28;;;;;;;6.23;4.27;;;;;;;12.11;73.60;100948.81;5090117;28;20323;-66
2023/10/05 01:15:57;;;;;;;9.13;4.57;;;;;;;12.10;73.84;100949.69;5085398;28;20224;-61
2023/10/05 01:18:25;;;;;;;6.33;4.17;;;;;;;12.08;73.99;100948.88;5088460;28;20284;-61
2023/10/05 01:20:57;;;;;;;6.63;3.97;;;;;;;12.07;74.04;100953.16;5087515;28;21040;-62
2023/10/05 01:23:38;;;;;;;6.60;4.07;;;;;;;12.08;74.33;100949.72;5090771;28;20691;-63
2023/10/05 01:26:10;;;;;;;6.17;4.03;;;;;;;12.06;73.87;100948.84;5087182;28;20256;-63
2023/10/05 01:28:40;;;;;;;8.13;3.90;;;;;;;12.08;73.94;100951.44;5083690;28;20205;-64
2023/10/05 01:31:16;;;;;;;6.53;3.87;;;;;;;12.11;73.84;100950.56;5089330;28;20217;-62
2023/10/05 01:33:46;;;;;;;5.73;3.90;;;;;;;12.12;74.00;100944.53;5086755;28;20698;-63
2023/10/05 01:36:16;;;;;;;7.27;4.13;;;;;;;12.15;73.79;100942.81;5092463;28;20716;-62
2023/10/05 01:38:45;;;;;;;5.57;3.97;;;;;;;12.16;73.67;100935.91;5088398;28;20231;-60
2023/10/05 01:41:20;;;;;;;8.47;3.93;;;;;;;12.15;73.66;100936.75;5087296;28;20273;-63
2023/10/05 01:43:48;;;;;;;6.37;3.90;;;;;;;12.17;73.56;100932.47;5090565;28;20226;-63
2023/10/05 01:46:16;;;;;;;5.73;3.83;;;;;;;12.18;73.31;100929.84;5083034;28;20233;-63
2023/10/05 01:48:45;;;;;;;7.67;4.47;;;;;;;12.19;72.96;100928.16;5090921;28;20678;-62
2023/10/05 01:51:15;;;;;;;8.13;4.23;;;;;;;12.16;73.03;100923.84;5087915;28;20200;-61
2023/10/05 01:53:45;;;;;;;6.90;4.47;;;;;;;12.17;73.12;100930.72;5082886;28;20283;-62
2023/10/05 01:56:17;;;;;;;7.03;3.83;;;;;;;12.17;73.29;100924.72;5089803;28;20562;-63
2023/10/05 01:58:50;;;;;;;8.27;4.27;;;;;;;12.16;73.20;100918.69;5090659;28;20201;-62
2023/10/05 02:01:20;;;;;;;7.90;3.80;;;;;;;12.18;73.36;100916.09;5084703;28;20204;-62
2023/10/05 02:03:52;;;;;;;7.67;3.97;;;;;;;12.18;73.23;100910.91;5084974;28;20216;-63
2023/10/05 02:06:21;;;;;;;5.87;4.37;;;;;;;12.16;72.95;100916.09;5084245;28;20209;-62
2023/10/05 02:08:51;;;;;;;6.17;3.63;;;;;;;12.17;73.34;100919.53;5087111;28;20209;-62
2023/10/05 02:11:23;;;;;;;8.00;4.30;;;;;;;12.16;72.98;100918.69;5087829;28;20672;-61
2023/10/05 02:13:52;;;;;;;7.10;4.00;;;;;;;12.13;72.90;100907.50;5085684;28;20193;-60
2023/10/05 02:16:22;;;;;;;7.23;3.93;;;;;;;12.10;73.46;100908.38;5086631;28;20205;-62
2023/10/05 02:18:51;;;;;;;5.63;3.97;;;;;;;12.07;73.48;100911.81;5088322;28;20204;-62
2023/10/05 02:21:27;;;;;;;8.43;3.93;;;;;;;12.05;73.39;100910.97;5089355;28;20292;-62
2023/10/05 02:24:05;;;;;;;7.97;3.80;;;;;;;12.05;73.60;100915.28;5087795;28;20209;-62
2023/10/05 02:26:34;;;;;;;5.40;3.63;;;;;;;12.04;73.25;100905.78;5086677;28;20200;-62
2023/10/05 02:29:13;;;;;;;8.50;3.97;;;;;;;12.03;73.38;100904.94;5088224;28;20245;-62
2023/10/05 02:31:54;;;;;;;5.90;3.73;;;;;;;11.99;73.49;100900.66;5087030;28;20554;-65
2023/10/05 02:34:23;;;;;;;5.47;4.20;;;;;;;11.99;73.82;100894.63;5084079;28;20737;-63
2023/10/05 02:36:54;;;;;;;6.60;3.90;;;;;;;11.97;73.45;100904.13;5085798;28;20236;-62
2023/10/05 02:39:24;;;;;;;7.33;3.83;;;;;;;11.89;73.90;100905.84;5081461;28;20251;-64
2023/10/05 02:41:54;;;;;;;5.97;3.80;;;;;;;11.86;74.11;100901.59;5086232;28;20197;-60
2023/10/05 02:44:28;;;;;;;4.93;3.27;;;;;;;11.86;74.25;100906.75;5082537;28;20290;-62
2023/10/05 02:46:56;;;;;;;6.23;4.03;;;;;;;11.87;74.11;100905.88;5087047;28;20199;-63
2023/10/05 02:49:25;;;;;;;6.87;3.73;;;;;;;11.84;73.92;100909.31;5087170;28;20205;-64
2023/10/05 02:51:54;;;;;;;6.53;3.90;;;;;;;11.86;73.74;100909.31;5090359;28;20231;-62
2023/10/05 02:54:27;;;;;;;6.43;3.27;;;;;;;11.85;73.75;100903.28;5089544;28;20199;-63
2023/10/05 02:56:55;;;;;;;6.93;3.87;;;;;;;11.82;74.17;100903.28;5089067;28;20200;-63
2023/10/05 02:59:27;;;;;;;4.43;3.77;;;;;;;11.84;73.93;100914.47;5083346;28;20731;-62
2023/10/05 03:02:00;;;;;;;7.10;3.70;;;;;;;11.84;73.85;100911.03;5089371;28;20212;-62
2023/10/05 03:04:44;;;;;;;7.33;3.80;;;;;;;11.84;73.90;100914.47;5082838;28;20296;-63
2023/10/05 03:07:14;;;;;;;8.27;3.70;;;;;;;11.85;73.90;100911.03;5088641;28;20254;-62
2023/10/05 03:09:46;;;;;;;7.77;4.20;;;;;;;11.85;73.84;100899.84;5084208;28;20204;-66
2023/10/05 03:12:15;;;;;;;9.17;4.03;;;;;;;11.86;73.62;100906.75;5088527;28;20201;-63
2023/10/05 03:14:43;;;;;;;7.07;3.63;;;;;;;11.84;73.96;100906.72;5089301;28;20594;-64
2023/10/05 03:17:14;;;;;;;6.50;3.97;;;;;;;11.79;73.77;100902.44;5093007;28;20209;-63
2023/10/05 03:19:43;;;;;;;9.10;4.33;;;;;;;11.80;73.79;100894.66;5087856;28;20200;-64
2023/10/05 03:22:12;;;;;;;8.37;3.67;;;;;;;11.78;74.02;100886.09;5090704;28;20565;-62
2023/10/05 03:24:44;;;;;;;11.57;4.67;;;;;;;11.79;73.88;100885.22;5083827;28;20308;-64
2023/10/05 03:27:14;;;;;;;8.30;4.23;;;;;;;11.81;73.77;100890.34;5090031;28;20208;-62
2023/10/05 03:29:45;;;;;;;6.17;3.60;;;;;;;11.82;73.71;100881.75;5092924;28;20209;-62
2023/10/05 03:32:14;;;;;;;7.90;4.03;;;;;;;11.81;73.74;100880.03;5090573;28;20202;-62
2023/10/05 03:34:48;;;;;;;6.50;3.80;;;;;;;11.81;73.83;100877.44;5092038;28;20201;-62
2023/10/05 03:37:15;;;;;;;7.63;4.27;;;;;;;11.80;73.81;100878.31;5092166;28;20735;-61
2023/10/05 03:39:53;;;;;;;6.13;3.50;;;;;;;11.79;73.33;100868.84;5095065;28;20719;-62
2023/10/05 03:42:23;;;;;;;6.83;4.50;;;;;;;11.79;74.04;100863.69;5084652;28;20667;-62
2023/10/05 03:45:00;;;;;;;9.03;4.63;;;;;;;11.77;73.86;100857.66;5090887;28;20290;-62
2023/10/05 03:47:28;;;;;;;6.40;4.00;;;;;;;11.76;73.66;100854.22;5087616;28;20200;-62
2023/10/05 03:49:56;;;;;;;6.37;3.97;;;;;;;11.75;74.05;100856.84;5093287;28;20695;-62
2023/10/05 03:52:29;;;;;;;7.30;4.50;;;;;;;11.74;74.19;100861.09;5091982;28;20211;-66
2023/10/05 03:55:03;;;;;;;10.10;4.73;;;;;;;11.75;74.21;100869.75;5092780;28;20196;-63
2023/10/05 03:57:34;;;;;;;8.53;4.83;;;;;;;11.71;74.04;100866.31;5089409;28;20216;-64
2023/10/05 04:00:22;;;;;;;9.17;4.87;;;;;;;11.69;74.21;100877.50;5092417;28;20208;-62
2023/10/05 04:02:52;;;;;;;6.23;3.97;;;;;;;11.67;74.48;100874.03;5089961;28;20633;-65
2023/10/05 04:05:23;;;;;;;7.07;4.33;;;;;;;11.67;74.57;100863.72;5089959;28;20319;-58
2023/10/05 04:07:52;;;;;;;9.37;4.40;;;;;;;11.68;74.28;100871.47;5090223;28;20201;-67
2023/10/05 04:10:34;;;;;;;6.53;3.80;;;;;;;11.69;74.08;100872.31;5090386;28;20222;-59
2023/10/05 04:13:05;;;;;;;8.27;3.80;;;;;;;11.67;74.39;100881.78;5092044;28;20212;-59
2023/10/05 04:15:33;;;;;;;5.33;3.90;;;;;;;11.67;74.38;100868.88;5086047;28;20246;-59
2023/10/05 04:18:01;;;;;;;8.27;4.00;;;;;;;11.67;74.44;100868.88;5085587;28;20216;-59
2023/10/05 04:20:29;;;;;;;9.27;4.47;;;;;;;11.68;74.31;100873.19;5090548;28;20200;-59
2023/10/05 04:22:57;;;;;;;8.53;4.40;;;;;;;11.65;74.48;100870.63;5090698;28;20676;-60
2023/10/05 04:25:25;;;;;;;8.10;4.50;;;;;;;11.62;74.34;100858.56;5090403;28;20276;-58
2023/10/05 04:27:53;;;;;;;8.03;4.27;;;;;;;11.63;74.54;100860.28;5091285;28;20236;-58
2023/10/05 04:30:23;;;;;;;6.87;4.30;;;;;;;11.63;74.79;100856.84;5088746;28;20450;-59
2023/10/05 04:32:52;;;;;;;9.00;4.43;;;;;;;11.61;74.43;100860.28;5088921;28;20582;-59
2023/10/05 04:35:23;;;;;;;8.57;4.80;;;;;;;11.61;74.70;100852.56;5090771;28;20564;-59
2023/10/05 04:37:51;;;;;;;8.40;5.07;;;;;;;11.59;74.61;100854.25;5085575;28;20204;-59
2023/10/05 04:40:23;;;;;;;9.73;4.97;;;;;;;11.58;74.83;100849.97;5089674;28;20202;-58
2023/10/05 04:42:51;;;;;;;7.10;4.47;;;;;;;11.56;74.70;100849.13;5090617;28;20208;-59
2023/10/05 04:45:20;;;;;;;7.93;4.10;;;;;;;11.55;75.12;100842.25;5088999;28;20241;-57
2023/10/05 04:47:50;;;;;;;8.57;4.70;;;;;;;11.56;74.54;100835.34;5090320;28;20329;-59
2023/10/05 04:50:18;;;;;;;13.90;5.40;;;;;;;11.56;75.02;100833.66;5089673;28;20192;-60
2023/10/05 04:52:50;;;;;;;7.37;4.57;;;;;;;11.57;74.78;100831.94;5090822;28;20223;-59
2023/10/05 04:55:23;;;;;;;7.60;4.20;;;;;;;11.57;74.71;100831.94;5087917;28;20204;-61
2023/10/05 04:57:55;;;;;;;8.50;4.37;;;;;;;11.54;75.01;100830.22;5088188;28;21182;-61
2023/10/05 05:03:48;;;;;;;8.23;4.63;;;;;;;11.57;74.83;100819.88;5047844;28;20203;-60
2023/10/05 05:06:16;;;;;;;8.07;4.40;;;;;;;11.59;74.78;100818.13;5041679;28;20306;-59
2023/10/05 05:08:44;;;;;;;7.90;4.90;;;;;;;11.60;75.09;100808.69;5080332;28;20253;-59
2023/10/05 05:11:19;;;;;;;10.77;4.90;;;;;;;11.57;74.59;100804.38;5090962;28;20211;-59
2023/10/05 05:13:48;;;;;;;8.30;4.33;;;;;;;11.61;74.61;100807.81;5089978;28;20200;-62
2023/10/05 05:16:16;;;;;;;10.03;4.40;;;;;;;11.63;74.54;100805.22;5083917;28;20295;-60
2023/10/05 05:18:45;;;;;;;7.37;4.60;;;;;;;11.63;74.50;100800.91;5085852;28;20201;-60
2023/10/05 05:21:14;;;;;;;9.93;4.73;;;;;;;11.67;74.13;100801.75;5091125;28;20212;-65
2023/10/05 05:23:42;;;;;;;9.40;4.53;;;;;;;11.66;74.36;100789.72;5083294;28;20634;-59
2023/10/05 05:26:11;;;;;;;10.33;4.73;;;;;;;11.67;74.58;100788.84;5096681;28;20193;-59
2023/10/05 05:28:43;;;;;;;10.63;4.93;;;;;;;11.66;74.17;100781.97;5091590;28;20209;-63
2023/10/05 05:31:14;;;;;;;7.60;4.87;;;;;;;11.64;74.13;100788.88;5086254;28;20209;-57
2023/10/05 05:33:44;;;;;;;10.67;5.50;;;;;;;11.63;74.56;100792.31;5086133;28;20204;-60
2023/10/05 05:36:14;;;;;;;11.23;5.00;;;;;;;11.63;74.49;100782.00;5089394;28;20197;-59
2023/10/05 05:38:47;;;;;;;8.57;4.90;;;;;;;11.64;74.58;100783.72;5089956;28;20236;-58
2023/10/05 05:41:18;;;;;;;11.00;5.07;;;;;;;11.63;74.36;100779.41;5085277;28;20314;-60
2023/10/05 05:43:47;;;;;;;6.57;4.40;;;;;;;11.66;74.08;100772.50;5088329;28;20232;-60
2023/10/05 05:46:16;;;;;;;9.10;4.53;;;;;;;11.68;74.32;100777.69;5085526;28;20233;-67
2023/10/05 05:48:48;;;;;;;8.33;4.73;;;;;;;11.72;74.14;100779.38;5091114;28;20205;-58
2023/10/05 05:51:21;;;;;;;9.53;4.73;;;;;;;11.74;74.49;100775.06;5090103;28;20219;-60
2023/10/05 05:53:50;;;;;;;7.97;5.17;;;;;;;11.75;74.13;100780.22;5085403;28;20223;-58
2023/10/05 05:56:18;;;;;;;11.23;4.57;;;;;;;11.78;73.58;100787.09;5089322;28;20196;-59
2023/10/05 05:58:47;;;;;;;9.67;5.23;;;;;;;11.76;73.71;100788.84;5085409;28;20248;-58
2023/10/05 06:01:15;;;;;;;9.77;4.83;;;;;;;11.77;73.77;100790.53;5090669;28;20207;-59
2023/10/05 06:03:47;;;;;;;9.87;4.57;;;;;;;11.80;74.01;100790.53;5088527;28;20204;-63
2023/10/05 06:06:15;;;;;;;7.63;4.80;;;;;;;11.83;73.36;100785.34;5083706;28;20258;-62
2023/10/05 06:08:44;;;;;;;9.47;4.50;;;;;;;11.84;73.70;100785.38;5093263;28;20672;-61
2023/10/05 06:11:15;;;;;;;7.07;4.40;;;;;;;11.89;73.55;100771.56;5087800;28;20232;-60
2023/10/05 06:13:45;;;;;;;7.50;5.07;;;;;;;11.90;73.67;100770.72;5088546;28;20205;-60
2023/10/05 06:16:14;;;;;;;9.70;4.97;;;;;;;11.90;73.29;100760.41;5091156;28;20200;-64
2023/10/05 06:18:43;;;;;;;9.00;4.97;;;;;;;11.91;73.10;100764.69;5092787;28;20570;-64
2023/10/05 06:21:12;;;;;;;10.33;4.90;;;;;;;11.93;73.46;100761.25;5083588;28;20220;-63
2023/10/05 06:23:40;;;;;;;9.30;4.90;;;;;;;12.00;73.22;100756.88;5087817;28;20228;-64
2023/10/05 06:26:09;;;;;;;10.07;4.90;;;;;;;12.06;72.73;100757.69;5088649;28;20216;-64
2023/10/05 06:28:37;;;;;;;7.90;4.80;;;;;;;12.09;72.29;100756.84;5087358;28;20624;-64
2023/10/05 06:31:06;;;;;;;7.97;4.80;;;;;;;12.06;73.15;100762.00;5091192;28;20197;-61
2023/10/05 06:33:34;;;;;;;8.90;4.77;;;;;;;12.11;73.00;100755.06;5090746;28;20208;-66
2023/10/05 06:36:03;;;;;;;5.13;3.97;;;;;;;12.17;72.95;100759.38;5087774;28;20193;-64
2023/10/05 06:38:31;;;;;;;9.43;4.73;;;;;;;12.19;72.66;100762.81;5090657;28;20211;-63
2023/10/05 06:40:59;;;;;;;8.23;4.80;;;;;;;12.23;72.36;100754.16;5093470;28;20656;-62
2023/10/05 06:43:28;;;;;;;9.33;4.63;;;;;;;12.28;72.32;100770.47;5087787;28;20193;-65
2023/10/05 06:46:09;;;;;;;12.77;5.13;;;;;;;12.30;72.33;100761.84;5083352;28;20733;-62
2023/10/05 06:48:37;;;;;;;10.10;4.30;;;;;;;12.35;71.82;100771.31;5083501;28;20223;-61
2023/10/05 06:51:07;;;;;;;7.73;4.37;;;;;;;12.35;71.47;100768.72;5093575;28;20647;-63
2023/10/05 06:53:35;;;;;;;8.83;4.30;;;;;;;12.37;71.41;100766.97;5093670;28;20207;-64
2023/10/05 06:56:05;;;;;;;10.70;4.50;;;;;;;12.38;71.86;100768.69;5095608;28;20196;-69
2023/10/05 06:58:35;;;;;;;8.03;4.77;;;;;;;12.43;71.78;100770.38;5090715;28;20204;-63
2023/10/05 07:01:04;;;;;;;8.90;4.43;;;;;;;12.50;71.36;100773.78;5093557;28;20635;-63
2023/10/05 07:03:33;;;;;;;8.07;4.43;;;;;;;12.59;71.78;100763.34;5098496;28;20219;-64
2023/10/05 07:06:03;;;;;;;9.93;4.73;;;;;;;12.71;71.41;100758.09;5099826;28;20215;-64
2023/10/05 07:08:32;;;;;;;7.57;4.63;;;;;;;12.93;70.78;100758.75;5099301;28;20208;-63
2023/10/05 07:11:00;;;;;;;7.80;4.20;;;;;;;13.12;69.92;100740.44;5093500;28;20205;-64
2023/10/05 07:13:29;;;;;;;9.53;5.00;;;;;;;13.25;69.07;100745.47;5089677;28;20201;-69
2023/10/05 07:15:58;;;;;;;8.57;3.97;;;;;;;13.37;68.43;100744.50;5092976;28;20287;-62
2023/10/05 07:18:27;;;;;;;12.30;4.30;;;;;;;13.54;68.32;100742.53;5091165;28;20215;-63
2023/10/05 07:20:57;;;;;;;7.67;4.77;;;;;;;13.68;67.55;100747.56;5093498;28;20205;-64
2023/10/05 07:23:25;;;;;;;14.07;4.83;;;;;;;13.73;66.69;100745.78;5091687;28;20682;-67
2023/10/05 07:25:53;;;;;;;9.27;4.63;;;;;;;13.73;66.51;100743.19;5096981;28;20224;-63
2023/10/05 07:28:21;;;;;;;9.80;4.47;;;;;;;13.71;67.14;100741.47;5095220;28;20613;-65
2023/10/05 07:30:49;;;;;;;8.70;4.50;;;;;;;13.74;66.51;100744.03;5089794;28;20394;-64
2023/10/05 07:33:18;;;;;;;7.27;3.87;;;;;;;13.72;66.68;100750.97;5091036;28;20574;-64
2023/10/05 07:35:46;;;;;;;6.97;4.20;;;;;;;13.74;66.74;100744.03;5103861;28;20293;-64
2023/10/05 07:38:14;;;;;;;8.07;4.27;;;;;;;13.75;66.51;100736.22;5097316;28;20208;-63
2023/10/05 07:40:42;;;;;;;8.57;4.03;;;;;;;13.73;66.50;100734.53;5097150;28;20200;-64
2023/10/05 07:43:10;;;;;;;9.07;4.33;;;;;;;13.71;66.33;100728.53;5096021;28;20201;-66
2023/10/05 07:45:38;;;;;;;6.23;4.10;;;;;;;13.69;66.12;100720.78;5095079;28;20246;-63
2023/10/05 07:48:06;;;;;;;7.53;4.23;;;;;;;13.80;66.16;100720.63;5093628;28;20671;-64
2023/10/05 07:50:37;;;;;;;8.53;4.00;;;;;;;13.87;65.35;100726.59;5095818;28;20207;-65
2023/10/05 07:53:05;;;;;;;10.40;4.47;;;;;;;13.97;65.18;100721.25;5088656;28;20249;-63
2023/10/05 07:55:35;;;;;;;6.63;3.90;;;;;;;14.07;64.27;100715.94;5091051;28;20652;-67
2023/10/05 07:58:05;;;;;;;9.57;3.97;;;;;;;14.08;63.44;100725.41;5090404;28;20204;-64
2023/10/05 08:00:34;;;;;;;9.27;4.13;;;;;;;14.15;63.49;100706.31;5091153;28;20725;-65
2023/10/05 08:03:03;;;;;;;5.53;3.47;;;;;;;14.22;63.13;100703.59;5084228;28;20197;-64
2023/10/05 08:05:32;;;;;;;11.13;3.90;;;;;;;14.32;62.63;100706.88;5085433;28;20243;-65
2023/10/05 08:08:02;;;;;;;10.27;3.57;;;;;;;14.47;61.42;100700.56;5094022;28;20208;-66
2023/10/05 08:10:31;;;;;;;8.30;3.80;;;;;;;14.62;60.99;100687.41;5092420;28;20639;-66
2023/10/05 08:13:03;;;;;;;7.17;3.53;;;;;;;14.75;60.25;100701.00;5088700;28;20549;-64
2023/10/05 08:15:31;;;;;;;6.50;4.10;;;;;;;14.80;60.23;100701.78;5093010;28;20209;-64
2023/10/05 08:17:59;;;;;;;5.87;3.20;;;;;;;14.82;60.24;100704.34;5095940;28;20254;-64
2023/10/05 08:20:27;;;;;;;6.80;3.73;;;;;;;14.93;60.09;100679.03;5085995;28;20298;-65
2023/10/05 08:22:56;;;;;;;6.20;3.63;;;;;;;15.05;59.28;100698.69;5086863;28;20213;-65
2023/10/05 08:25:26;;;;;;;9.00;3.97;;;;;;;15.02;59.21;100703.94;5087152;28;20570;-64
2023/10/05 08:27:55;;;;;;;9.50;4.30;;;;;;;14.83;59.19;100693.91;5086879;28;20239;-61
2023/10/05 08:30:25;;;;;;;11.90;3.90;;;;;;;14.65;60.01;100689.91;5087896;28;20670;-65
2023/10/05 08:32:56;;;;;;;9.83;3.33;;;;;;;14.49;60.58;100691.94;5090233;28;20276;-63
2023/10/05 08:35:40;;;;;;;7.80;4.10;;;;;;;14.43;60.98;100686.84;5085537;28;20215;-64
2023/10/05 08:38:15;;;;;;;14.50;4.50;;;;;;;14.39;61.31;100692.94;5090447;28;20651;-63
2023/10/05 08:40:45;;;;;;;6.73;3.40;;;;;;;14.39;61.37;100690.34;5088140;28;20671;-62
2023/10/05 08:43:16;;;;;;;4.67;3.20;;;;;;;14.42;61.25;100717.97;5088874;28;20279;-64
2023/10/05 08:45:47;;;;;;;8.30;3.37;;;;;;;14.39;60.61;100703.31;5087451;28;20652;-66
2023/10/05 08:48:19;;;;;;;8.90;3.60;;;;;;;14.35;61.25;100680.91;5092097;28;20208;-65
2023/10/05 08:50:52;;;;;;;8.63;3.63;;;;;;;14.36;61.33;100687.81;5087865;28;20213;-63
2023/10/05 08:53:23;;;;;;;11.77;3.70;;;;;;;14.42;61.51;100681.66;5085428;28;20197;-65
2023/10/05 08:55:54;;;;;;;9.00;4.07;;;;;;;14.49;61.16;100684.16;5085180;28;20193;-64
2023/10/05 08:58:22;;;;;;;7.50;3.37;;;;;;;14.55;61.60;100678.03;5090138;28;20232;-64
2023/10/05 09:00:51;;;;;;;9.53;3.53;;;;;;;14.62;60.94;100678.78;5082162;28;20208;-63
2023/10/05 09:03:35;;;;;;;6.67;3.50;;;;;;;14.63;60.91;100670.09;5085787;28;20612;-64
2023/10/05 09:06:15;;;;;;;7.40;3.13;;;;;;;14.68;60.61;100683.81;5083745;28;20228;-64
2023/10/05 09:08:53;;;;;;;9.37;3.73;;;;;;;14.69;60.48;100686.41;5083644;28;20782;-66
2023/10/05 09:11:31;;;;;;;9.00;3.97;;;;;;;14.65;60.28;100669.16;5090329;28;20200;-64
2023/10/05 09:14:12;;;;;;;5.70;2.80;;;;;;;14.64;60.49;100666.59;5085879;28;20659;-65
2023/10/05 09:16:45;;;;;;;6.43;3.47;;;;;;;14.65;60.55;100663.13;5091337;28;20211;-64
2023/10/05 09:19:17;;;;;;;10.93;3.57;;;;;;;14.62;60.04;100669.25;5092030;28;20651;-64
2023/10/05 09:21:55;;;;;;;10.03;3.23;;;;;;;14.62;60.23;100666.66;5089686;28;20659;-63
2023/10/05 09:24:23;;;;;;;7.13;3.53;;;;;;;14.64;59.95;100666.59;5084402;28;20229;-64
2023/10/05 09:26:54;;;;;;;9.90;3.57;;;;;;;14.65;60.55;100663.13;5089802;28;20258;-62
2023/10/05 09:29:27;;;;;;;9.97;3.33;;;;;;;14.71;60.55;100669.06;5086289;28;20232;-64
2023/10/05 09:31:58;;;;;;;9.57;3.47;;;;;;;14.69;59.92;100654.41;5083085;28;20722;-62
2023/10/05 09:34:41;;;;;;;8.13;3.53;;;;;;;14.74;60.45;100666.41;5091023;28;20204;-66
2023/10/05 09:37:10;;;;;;;7.73;3.63;;;;;;;14.73;59.83;100658.69;5089708;28;20215;-64
2023/10/05 09:39:44;;;;;;;5.47;3.10;;;;;;;14.69;60.41;100664.78;5087593;28;20249;-66
2023/10/05 09:42:17;;;;;;;7.90;3.60;;;;;;;14.70;60.25;100669.09;5088267;28;20287;-64
2023/10/05 09:44:51;;;;;;;5.87;3.53;;;;;;;14.72;60.46;100656.94;5090855;28;20723;-65
2023/10/05 09:47:24;;;;;;;6.33;3.20;;;;;;;14.73;60.10;100662.13;5086547;28;20225;-62
2023/10/05 09:49:59;;;;;;;8.13;3.90;;;;;;;14.75;60.34;100667.28;5083343;28;20291;-64
2023/10/05 09:52:34;;;;;;;7.50;3.77;;;;;;;14.75;60.34;100664.66;5086602;28;20548;-64
2023/10/05 09:55:05;;;;;;;6.43;3.43;;;;;;;14.75;59.94;100654.28;5086872;28;20669;-64
2023/10/05 09:57:41;;;;;;;7.00;3.47;;;;;;;14.79;59.81;100652.50;5078110;28;20633;-64
2023/10/05 10:00:27;;;;;;;5.60;3.20;;;;;;;14.83;59.51;100652.41;5092955;28;20285;-66
2023/10/05 10:02:57;;;;;;;7.20;3.30;;;;;;;14.87;59.32;100650.59;5089742;28;20629;-62
2023/10/05 10:05:35;;;;;;;7.80;3.47;;;;;;;14.93;59.39;100642.72;5080228;28;20655;-62
2023/10/05 10:08:09;;;;;;;6.80;3.07;;;;;;;14.97;59.19;100639.16;5085412;28;20221;-63
2023/10/05 10:10:51;;;;;;;11.33;3.50;;;;;;;14.99;58.10;100652.97;5085033;28;20291;-63
2023/10/05 10:13:22;;;;;;;8.60;3.13;;;;;;;15.00;57.84;100649.50;5088023;28;20201;-64
2023/10/05 10:15:53;;;;;;;5.63;2.83;;;;;;;15.05;58.16;100662.38;5088576;28;20204;-62
2023/10/05 10:18:34;;;;;;;4.17;2.90;;;;;;;15.09;58.27;100648.44;5084830;28;20212;-64
2023/10/05 10:21:09;;;;;;;8.47;2.97;;;;;;;15.14;57.49;100680.38;5084344;28;20201;-63
2023/10/05 10:23:39;;;;;;;7.93;3.13;;;;;;;15.17;56.99;100634.44;5083388;28;20659;-63
2023/10/05 10:26:16;;;;;;;9.70;2.97;;;;;;;15.21;57.19;100632.63;5082814;28;20209;-64
2023/10/05 10:28:56;;;;;;;6.87;3.10;;;;;;;15.23;56.27;100647.25;5083351;28;20229;-65
2023/10/05 10:31:42;;;;;;;5.83;2.97;;;;;;;15.25;56.57;100629.06;5086043;28;20554;-63
2023/10/05 10:34:18;;;;;;;6.43;3.60;;;;;;;15.25;56.80;100631.66;5086768;28;20200;-63
2023/10/05 10:36:52;;;;;;;5.97;2.77;;;;;;;15.28;56.90;100629.00;5080270;28;20204;-63
2023/10/05 10:39:24;;;;;;;5.73;2.93;;;;;;;15.28;57.02;100618.63;5081543;28;20215;-64
2023/10/05 10:42:04;;;;;;;9.63;3.00;;;;;;;15.35;57.04;100635.75;5083415;28;20291;-61
2023/10/05 10:44:56;;;;;;;8.30;3.10;;;;;;;15.39;57.11;100627.03;5082938;28;20239;-65
2023/10/05 10:47:26;;;;;;;7.23;3.93;;;;;;;15.32;56.66;100615.06;5079165;28;20216;-62
2023/10/05 10:50:10;;;;;;;7.43;2.90;;;;;;;15.31;57.32;100618.53;5082361;28;20611;-64
2023/10/05 10:52:38;;;;;;;6.97;3.60;;;;;;;15.28;57.16;100616.03;5080193;28;20200;-64
2023/10/05 10:55:09;;;;;;;7.37;3.43;;;;;;;15.23;57.41;100612.66;5084283;28;20215;-64
2023/10/05 10:57:37;;;;;;;10.17;3.50;;;;;;;15.21;57.76;100607.53;5084130;28;20197;-64
2023/10/05 11:03:11;;;;;;;8.40;3.40;;;;;;;15.25;57.88;100597.06;5077293;28;20257;-65
2023/10/05 11:05:39;;;;;;;6.23;2.73;;;;;;;15.30;57.64;100590.88;5082314;28;20213;-65
2023/10/05 11:08:09;;;;;;;7.00;2.97;;;;;;;15.30;57.24;100585.69;5089859;28;20243;-65
2023/10/05 11:10:37;;;;;;;8.10;3.20;;;;;;;15.31;56.91;100587.38;5084952;28;20269;-64
2023/10/05 11:13:14;;;;;;;8.07;3.20;;;;;;;15.36;56.61;100574.31;5084493;28;20659;-65
2023/10/05 11:15:59;;;;;;;9.40;2.80;;;;;;;15.41;56.65;100575.91;5085068;28;20217;-64
2023/10/05 11:18:30;;;;;;;11.27;4.20;;;;;;;15.45;56.30;100566.31;5084641;28;20646;-66
2023/10/05 11:21:06;;;;;;;7.53;3.47;;;;;;;15.49;56.15;100572.28;5082840;28;20649;-64
2023/10/05 11:23:44;;;;;;;8.23;2.97;;;;;;;15.52;55.79;100573.06;5081890;28;20222;-67
2023/10/05 11:26:18;;;;;;;5.60;3.40;;;;;;;15.48;55.62;100567.97;5091398;28;20205;-66
2023/10/05 11:28:49;;;;;;;6.75;2.83;;;;;;;15.50;55.90;100558.41;5080871;28;20212;-65
2023/10/05 11:31:22;;;;;;;8.43;2.87;;;;;;;15.53;55.82;100568.72;5084074;28;20197;-66
2023/10/05 11:34:00;;;;;;;15.47;3.63;;;;;;;15.52;55.70;100567.88;5086713;28;20224;-68
2023/10/05 11:36:48;;;;;;;9.90;3.37;;;;;;;15.48;55.62;100562.78;5070986;28;20665;-65
2023/10/05 11:39:22;;;;;;;6.77;2.53;;;;;;;15.44;54.75;100551.63;5091540;28;20695;-66
2023/10/05 11:41:52;;;;;;;6.10;2.90;;;;;;;15.44;55.11;100557.66;5087933;28;20234;-65
2023/10/05 11:44:23;;;;;;;4.87;2.67;;;;;;;15.46;55.58;100553.31;5090725;28;20308;-66
2023/10/05 11:46:54;;;;;;;6.10;3.00;;;;;;;15.48;55.75;100549.81;5088010;28;20571;-67
2023/10/05 11:49:30;;;;;;;8.83;3.20;;;;;;;15.49;55.70;100549.75;5089164;28;20244;-67
2023/10/05 11:52:00;;;;;;;5.93;3.07;;;;;;;15.52;55.81;100549.69;5088526;28;20201;-64